Latest Coastal Weather Observations for Proserpine

IDQ60701

Issued at 2:52 pm EST Thursday 30 June 2016 (issued every 10 minutes, with the page automatically refreshed every 10 minutes)

About coastal observations | Map of coastal stations | Coastal observations for QLD | Marine services | Other Formats
Station Details ID: 033247 Name: PROSERPINE AIRPORT Lat: -20.49 Lon: 148.56 Height: 19.7 m
Data from the previous 72 hours. | See also: Recent months at Proserpine
Date/Time
EST
Temp
°C
Wind Pressure Rain since
9am
mm
Weather Cloud Vis
km
Sea
Height
m
Swell
Dir  Spd
kts
Gust
kts
hPa Trend Height
m
Period
s
Dir
30/02:30pm 24.0 ESE 8 11 1018.6 - 0.0 - - 10 - - - -
30/02:00pm 23.9 ESE 8 11 1018.8 - 0.0 - - 10 - - - -
30/01:30pm 24.6 ESE 7 9 1019.1 - 0.0 - Partly cloudy 10 - - - -
30/01:00pm 24.1 ESE 7 11 1019.5 - 0.0 - Partly cloudy 10 - - - -
30/12:30pm 24.1 ESE 7 10 1019.9 - 0.0 - Partly cloudy 10 - - - -
30/12:00pm 23.7 ESE 7 10 1020.4 - 0.0 - Partly cloudy 10 - - - -
30/11:30am 23.1 ESE 7 13 1020.9 - 0.0 - Partly cloudy 10 - - - -
30/11:00am 23.0 ESE 8 11 1021.3 - 0.0 - - 10 - - - -
30/10:30am 22.2 ESE 7 10 1021.7 - 0.0 - - 10 - - - -
30/10:00am 21.2 ESE 6 9 1022.1 - 0.0 - - 10 - - - -
30/09:30am 20.6 ESE 5 6 1022.1 - 0.0 - - 10 - - - -
30/09:00am 18.5 SSE 3 5 1022.0 - 0.0 - - 10 - - - -
30/08:30am 16.5 CALM 0 0 1021.9 - 0.0 - - 10 - - - -
30/08:00am 14.3 SW 2 3 1021.7 - 0.0 - - 10 - - - -
30/07:30am 12.5 SSW 3 5 1021.5 - 0.0 - - 10 - - - -
30/07:00am 11.0 SSW 4 5 1021.4 - 0.0 - - 10 - - - -
30/06:30am 11.2 SSW 1 4 1021.1 - 0.0 - - 10 - - - -
30/06:00am 10.7 SSW 4 5 1020.9 - 0.0 - - 10 - - - -
30/05:30am 10.8 CALM 0 0 1020.7 - 0.0 - - 10 - - - -
30/05:00am 11.2 CALM 0 0 1020.6 - 0.0 - - 10 - - - -
30/04:30am 11.5 CALM 0 0 1020.7 - 0.0 - - 10 - - - -
30/04:00am 11.8 CALM 0 0 1020.8 - 0.0 - - 10 - - - -
30/03:30am 12.1 CALM 0 0 1020.9 - 0.0 - - 10 - - - -
30/03:00am 13.2 SSW 3 4 1021.0 - 0.0 - Cloudy 10 - - - -
30/02:30am 12.8 SSW 5 6 1021.2 - 0.0 - Partly cloudy 10 - - - -
30/02:00am 12.8 SW 3 4 1021.7 - 0.0 - Partly cloudy 10 - - - -
30/01:30am 12.3 WNW 3 4 1022.2 - 0.0 - Partly cloudy 10 - - - -
30/01:00am 12.7 WSW 5 6 1022.4 - 0.0 - Partly cloudy 10 - - - -
30/12:30am 12.9 WSW 4 5 1022.5 - 0.0 - Partly cloudy 10 - - - -
30/12:00am 13.7 SW 3 4 1022.7 - 0.0 - Cloudy 10 - - - -
 
Date/Time
EST
Temp
°C
Wind Pressure Rain since
9am
mm
Weather Cloud Vis
km
Sea
Height
m
Swell
Dir  Spd
kts
Gust
kts
hPa Trend Height
m
Period
s
Dir
29/11:30pm 13.4 SW 6 7 1022.8 - 0.0 - Partly cloudy 10 - - - -
29/11:00pm 12.9 SW 6 7 1023.0 - 0.0 - - 10 - - - -
29/10:30pm 12.9 WSW 6 7 1023.2 - 0.0 - Partly cloudy 10 - - - -
29/10:00pm 13.0 SW 6 8 1023.3 - 0.0 - Partly cloudy 10 - - - -
29/09:30pm 14.0 S 7 9 1023.2 - 0.0 - - 10 - - - -
29/09:00pm 14.6 S 8 10 1023.3 - 0.0 - Mostly clear 10 - - - -
29/08:30pm 14.7 S 7 8 1023.3 - 0.0 - - 10 - - - -
29/08:00pm 14.5 SSE 5 7 1023.1 - 0.0 - - 10 - - - -
29/07:30pm 15.0 SSE 6 8 1022.9 - 0.0 - - 10 - - - -
29/07:00pm 15.1 S 7 7 1022.6 - 0.0 - - 10 - - - -
29/06:30pm 15.3 SSE 5 6 1022.4 - 0.0 - - 10 - - - -
29/06:00pm 16.1 SE 6 8 1022.2 - 0.0 - - 10 - - - -
29/05:30pm 17.9 SE 9 12 1022.1 - 0.0 - - 10 - - - -
29/05:00pm 19.3 SE 11 14 1022.0 - 0.0 - - 10 - - - -
29/04:30pm 20.2 SE 14 17 1021.8 - 0.0 - - 10 - - - -
29/04:00pm 20.7 ESE 12 17 1021.6 - 0.0 - - 10 - - - -
29/03:30pm 20.8 ESE 14 19 1021.5 - 0.0 - - 10 - - - -
29/03:00pm 21.4 ESE 13 19 1021.4 - 0.0 - - 10 - - - -
29/02:30pm 21.1 ESE 13 19 1021.5 - 0.0 - - 10 - - - -
29/02:00pm 20.8 ESE 14 19 1021.5 - 0.0 - - 10 - - - -
29/01:30pm 21.1 ESE 13 19 1021.8 - 0.0 - - 10 - - - -
29/01:00pm 20.4 ESE 12 18 1022.2 - 0.0 - - 10 - - - -
29/12:30pm 20.8 ESE 12 17 1022.7 - 0.0 - - 10 - - - -
29/12:00pm 20.9 SE 13 20 1023.1 - 0.0 - - 10 - - - -
29/11:30am 20.1 ESE 13 20 1023.4 - 0.0 - - 10 - - - -
29/11:00am 19.6 SE 13 18 1023.9 - 0.0 - - 10 - - - -
29/10:30am 19.2 SE 11 17 1024.0 - 0.0 - - 10 - - - -
29/10:00am 18.0 SE 11 14 1024.3 - 0.0 - Partly cloudy 10 - - - -
29/09:30am 17.1 SSE 10 14 1024.5 - 0.0 - - 10 - - - -
29/09:00am 14.7 S 5 8 1024.5 - 0.2 - - 10 - - - -
29/08:30am 12.7 SSW 4 5 1024.6 - 0.2 - - 10 - - - -
29/08:00am 11.1 SW 5 6 1024.6 - 0.2 - - 10 - - - -
29/07:30am 8.9 SW 4 5 1024.3 - 0.2 - - 10 - - - -
29/07:00am 7.0 SW 4 6 1024.1 - 0.2 - - 10 - - - -
29/06:30am 7.2 SW 5 6 1023.9 - 0.2 - - 10 - - - -
29/06:00am 7.7 SSW 7 9 1023.5 - 0.2 - - 10 - - - -
29/05:30am 7.4 SW 6 8 1023.4 - 0.2 - - 10 - - - -
29/05:00am 7.0 WSW 4 5 1023.4 - 0.2 - - 10 - - - -
29/04:30am 7.2 SW 4 5 1023.4 - 0.2 - - 10 - - - -
29/04:00am 7.6 SW 5 7 1023.4 - 0.2 - - 10 - - - -
29/03:30am 7.7 SW 3 4 1023.2 - 0.2 - - 10 - - - -
29/03:00am 8.3 SSW 7 7 1023.4 - 0.2 - - 10 - - - -
29/02:30am 8.2 SSW 7 8 1023.6 - 0.2 - - 10 - - - -
29/02:00am 8.1 SSW 6 7 1023.8 - 0.2 - - 10 - - - -
29/01:30am 8.5 SSW 6 7 1024.0 - 0.2 - - 10 - - - -
29/01:00am 8.8 S 5 7 1024.1 - 0.2 - - 10 - - - -
29/12:30am 10.0 S 5 6 1024.3 - 0.2 - - 10 - - - -
29/12:00am 11.6 S 7 9 1024.5 - 0.2 - - 10 - - - -
 
Date/Time
EST
Temp
°C
Wind Pressure Rain since
9am
mm
Weather Cloud Vis
km
Sea
Height
m
Swell
Dir  Spd
kts
Gust
kts
hPa Trend Height
m
Period
s
Dir
28/11:30pm 12.1 S 7 8 1024.5 - 0.2 - - 10 - - - -
28/11:00pm 12.6 SSE 6 8 1024.5 - 0.2 - - 10 - - - -
28/10:30pm 12.7 SSE 6 7 1024.4 - 0.2 - - 10 - - - -
28/10:00pm 13.4 SSE 7 9 1024.4 - 0.2 - - 10 - - - -
28/09:30pm 13.8 SE 9 12 1024.0 - 0.2 - - 10 - - - -
28/09:00pm 13.5 SSE 7 9 1023.7 - 0.2 - - 10 - - - -
28/08:30pm 13.9 S 8 12 1023.4 - 0.2 - - 10 - - - -
28/08:00pm 14.2 S 8 10 1023.2 - 0.2 - - 10 - - - -
28/07:30pm 13.8 ESE 5 6 1022.9 - 0.2 - - 10 - - - -
28/07:00pm 14.7 ESE 5 6 1022.6 - 0.2 - - 10 - - - -
28/06:30pm 15.8 ESE 6 8 1022.1 - 0.2 - - 10 - - - -
28/06:00pm 15.8 ESE 5 7 1021.5 - 0.2 - - 10 - - - -
28/05:30pm 16.8 ENE 6 7 1021.2 - 0.2 - - 10 - - - -
28/05:00pm 18.9 ENE 8 12 1020.9 - 0.2 - - 10 - - - -
28/04:30pm 19.8 E 9 13 1020.6 - 0.2 - - 10 - - - -
28/04:00pm 20.1 E 9 12 1020.2 - 0.2 - - 10 - - - -
28/03:30pm 20.3 E 11 16 1020.1 - 0.2 - - 10 - - - -
28/03:00pm 20.6 E 11 15 1019.8 - 0.2 - - 10 - - - -
28/02:30pm 20.1 E 9 14 1019.7 - 0.2 - - 10 - - - -
28/02:00pm 20.7 E 11 16 1019.7 - 0.2 - - 10 - - - -
28/01:30pm 20.5 E 10 13 1019.8 - 0.2 - - 10 - - - -
28/01:00pm 20.1 ESE 9 13 1020.1 - 0.2 - - 10 - - - -
28/12:30pm 19.7 ESE 8 12 1020.5 - 0.2 - - 10 - - - -
28/12:00pm 19.9 ESE 9 12 1020.8 - 0.2 Recent precip. - 10 - - - -
28/11:30am 19.2 ESE 9 13 1021.3 - 0.2 - - 10 - - - -
28/11:00am 18.5 ESE 9 13 1021.7 - 0.0 - - 10 - - - -
28/10:30am 18.3 E 11 14 1021.9 - 0.0 - - 10 - - - -
28/10:00am 18.0 E 10 14 1022.0 - 0.0 - - 10 - - - -
28/09:44am 17.9 ESE 9 13 1022.1 - 0.0 - Partly cloudy 10 - - - -
28/09:30am 17.5 ESE 10 13 1022.0 - 0.0 - Partly cloudy 10 - - - -
28/09:00am 17.0 ESE 10 14 1021.8 - 0.6 - Cloudy 10 - - - -
28/08:30am 15.9 ESE 8 11 1021.7 - 0.6 - Cloudy 10 - - - -
28/08:00am 15.6 ESE 7 11 1021.3 - 0.6 - Cloudy 10 - - - -
28/07:30am 15.3 SE 6 8 1020.8 - 0.6 - Cloudy 10 - - - -
28/07:00am 15.5 SE 4 5 1020.3 - 0.6 - Cloudy 10 - - - -
28/06:30am 15.3 SE 6 8 1019.8 - 0.6 - Cloudy 10 - - - -
28/06:00am 15.2 SE 5 7 1019.4 - 0.6 - Mostly cloudy 10 - - - -
28/05:48am 15.0 SE 4 5 1019.2 - 0.6 - Partly cloudy 10 - - - -
28/05:30am 15.3 ESE 4 5 1018.9 - 0.6 - - 10 - - - -
28/05:00am 16.0 ESE 5 7 1018.6 - 0.6 - - 10 - - - -
28/04:30am 16.9 ESE 6 7 1018.4 - 0.6 - Partly cloudy 10 - - - -
28/04:08am 17.5 E 6 11 1018.3 - 0.6 - Partly cloudy 10 - - - -
28/04:00am 17.8 E 6 11 1018.2 - 0.6 - Partly cloudy 10 - - - -
28/03:30am 17.9 SE 3 4 1018.2 - 0.6 - Partly cloudy 10 - - - -
28/03:22am 18.1 SE 3 4 1018.1 - 0.6 - Partly cloudy 10 - - - -
28/03:00am 18.1 ESE 3 5 1018.1 - 0.6 - - 10 - - - -
28/02:30am 19.1 ESE 5 6 1018.0 - 0.6 - Partly cloudy 10 - - - -
28/02:00am 20.1 ESE 4 6 1018.0 - 0.6 - Cloudy 10 - - - -
28/01:30am 20.4 SSE 5 7 1018.0 - 0.6 - Cloudy 10 - - - -
28/01:00am 20.3 SSE 5 8 1018.0 - 0.6 - Partly cloudy 10 - - - -
28/12:30am 20.4 S 4 5 1017.8 - 0.6 - Partly cloudy 10 - - - -
28/12:00am 20.5 SSW 5 5 1017.8 - 0.6 - Cloudy 10 - - - -
 
Date/Time
EST
Temp
°C
Wind Pressure Rain since
9am
mm
Weather Cloud Vis
km
Sea
Height
m
Swell
Dir  Spd
kts
Gust
kts
hPa Trend Height
m
Period
s
Dir
27/11:30pm 20.3 SSW 5 6 1017.6 - 0.6 - Partly cloudy 10 - - - -
27/11:00pm 20.2 SSW 6 7 1017.7 - 0.6 - - 10 - - - -
27/10:59pm 20.2 SW 6 7 1017.7 - 0.6 - - 10 - - - -
27/10:30pm 19.8 S 3 5 1017.6 - 0.6 - Partly cloudy 2 - - - -
27/10:05pm 20.3 S 2 3 1017.6 - 0.6 - Partly cloudy 5 - - - -
27/10:00pm 20.7 S 3 3 1017.6 - 0.6 - Partly cloudy 10 - - - -
27/09:38pm 20.9 CALM 0 0 1017.5 - 0.6 - Partly cloudy 10 - - - -
27/09:30pm 20.8 CALM 0 2 1017.4 - 0.6 - Partly cloudy 10 - - - -
27/09:00pm 21.1 CALM 0 0 1017.4 - 0.6 - Partly cloudy 0.3 - - - -
27/08:51pm 20.9 CALM 0 0 1017.2 - 0.6 - Partly cloudy 3 - - - -
27/08:30pm 21.1 S 2 4 1017.2 - 0.6 - Partly cloudy 10 - - - -
27/08:00pm 21.5 SSW 6 7 1017.1 - 0.6 - Partly cloudy 10 - - - -
27/07:30pm 21.7 ESE 1 4 1016.8 - 0.6 - Partly cloudy 10 - - - -
27/07:00pm 22.5 NNE 4 5 1016.5 - 0.6 - Partly cloudy 10 - - - -
27/06:30pm 23.3 WNW 4 8 1016.2 - 0.6 - Partly cloudy 10 - - - -
27/06:00pm 23.7 SW 4 5 1015.9 - 0.0 - Cloudy 10 - - - -
27/05:30pm 24.5 NNW 8 10 1015.1 - 0.0 - Partly cloudy 10 - - - -
27/05:00pm 24.9 NNW 7 11 1014.7 - 0.0 - Partly cloudy 10 - - - -
27/04:30pm 25.1 NNW 7 10 1014.5 - 0.0 - - 10 - - - -
27/04:00pm 26.6 N 8 13 1014.3 - 0.0 - - 10 - - - -
27/03:30pm 27.3 NNW 9 12 1014.1 - 0.0 - - 10 - - - -
27/03:00pm 26.7 NNW 10 13 1014.4 - 0.0 - Mostly clear 10 - - - -

Other Formats:

Comma delimited format used in spreadsheet applications
http://www.bom.gov.au/fwo/IDQ60701/IDQ60701.94365.axf

JavaScript Object Notation format (JSON) in row-major order
http://www.bom.gov.au/fwo/IDQ60701/IDQ60701.94365.json